sensor_id;sensor_type;location;lat;lon;timestamp;pressure;altitude;pressure_sealevel;temperature;humidity
48968;BME280;46511;53.148;8.204;2023-03-04T00:01:22;102358.88;;;8.11;100.00
48968;BME280;46511;53.148;8.204;2023-03-04T00:03:53;102355.47;;;8.04;100.00
48968;BME280;46511;53.148;8.204;2023-03-04T00:06:24;102348.69;;;7.91;100.00
48968;BME280;46511;53.148;8.204;2023-03-04T00:08:56;102340.34;;;8.11;100.00
48968;BME280;46511;53.148;8.204;2023-03-04T00:11:27;102347.53;;;8.04;100.00
48968;BME280;46511;53.148;8.204;2023-03-04T00:13:59;102356.53;;;7.97;100.00
48968;BME280;46511;53.148;8.204;2023-03-04T00:16:30;102342.13;;;8.10;100.00
48968;BME280;46511;53.148;8.204;2023-03-04T00:19:01;102345.97;;;7.94;100.00
48968;BME280;46511;53.148;8.204;2023-03-04T00:21:33;102344.19;;;7.94;100.00
48968;BME280;46511;53.148;8.204;2023-03-04T00:24:04;102350.59;;;7.84;100.00
48968;BME280;46511;53.148;8.204;2023-03-04T00:26:36;102344.25;;;7.93;100.00
48968;BME280;46511;53.148;8.204;2023-03-04T00:29:08;102339.66;;;8.01;100.00
48968;BME280;46511;53.148;8.204;2023-03-04T00:31:39;102341.59;;;7.93;100.00
48968;BME280;46511;53.148;8.204;2023-03-04T00:34:10;102325.53;;;8.02;100.00
48968;BME280;46511;53.148;8.204;2023-03-04T00:36:41;102329.69;;;8.14;100.00
48968;BME280;46511;53.148;8.204;2023-03-04T00:39:14;102321.97;;;8.03;100.00
48968;BME280;46511;53.148;8.204;2023-03-04T00:41:45;102331.69;;;8.02;100.00
48968;BME280;46511;53.148;8.204;2023-03-04T00:44:17;102334.88;;;7.77;100.00
48968;BME280;46511;53.148;8.204;2023-03-04T00:46:48;102323.66;;;8.07;100.00
48968;BME280;46511;53.148;8.204;2023-03-04T00:49:20;102328.13;;;7.62;100.00
48968;BME280;46511;53.148;8.204;2023-03-04T00:51:51;102328.31;;;7.94;100.00
48968;BME280;46511;53.148;8.204;2023-03-04T00:54:23;102323.34;;;7.81;100.00
48968;BME280;46511;53.148;8.204;2023-03-04T00:56:54;102322.03;;;8.00;100.00
48968;BME280;46511;53.148;8.204;2023-03-04T00:59:25;102322.69;;;8.11;100.00
48968;BME280;46511;53.148;8.204;2023-03-04T01:01:57;102319.72;;;8.26;100.00
48968;BME280;46511;53.148;8.204;2023-03-04T01:04:28;102317.50;;;8.05;100.00
48968;BME280;46511;53.148;8.204;2023-03-04T01:06:59;102309.47;;;8.10;100.00
48968;BME280;46511;53.148;8.204;2023-03-04T01:09:31;102312.50;;;7.93;100.00
48968;BME280;46511;53.148;8.204;2023-03-04T01:12:02;102311.25;;;8.09;100.00
48968;BME280;46511;53.148;8.204;2023-03-04T01:14:33;102314.06;;;8.01;100.00
48968;BME280;46511;53.148;8.204;2023-03-04T01:17:05;102307.72;;;8.10;100.00
48968;BME280;46511;53.148;8.204;2023-03-04T01:19:36;102299.72;;;8.12;100.00
48968;BME280;46511;53.148;8.204;2023-03-04T01:22:07;102303.16;;;8.17;100.00
48968;BME280;46511;53.148;8.204;2023-03-04T01:24:40;102301.25;;;8.22;100.00
48968;BME280;46511;53.148;8.204;2023-03-04T01:27:12;102299.56;;;8.19;100.00
48968;BME280;46511;53.148;8.204;2023-03-04T01:29:44;102298.00;;;8.11;100.00
48968;BME280;46511;53.148;8.204;2023-03-04T01:32:15;102293.47;;;8.14;100.00
48968;BME280;46511;53.148;8.204;2023-03-04T01:34:46;102285.53;;;8.14;100.00
48968;BME280;46511;53.148;8.204;2023-03-04T01:37:17;102281.59;;;8.35;100.00
48968;BME280;46511;53.148;8.204;2023-03-04T01:39:49;102284.38;;;8.27;100.00
48968;BME280;46511;53.148;8.204;2023-03-04T01:42:21;102281.25;;;8.10;100.00
48968;BME280;46511;53.148;8.204;2023-03-04T01:44:54;102281.16;;;8.13;100.00
48968;BME280;46511;53.148;8.204;2023-03-04T01:47:27;102277.50;;;8.19;100.00
48968;BME280;46511;53.148;8.204;2023-03-04T01:50:00;102276.22;;;7.98;100.00
48968;BME280;46511;53.148;8.204;2023-03-04T01:52:33;102266.81;;;8.23;100.00
48968;BME280;46511;53.148;8.204;2023-03-04T01:55:08;102267.31;;;8.02;100.00
48968;BME280;46511;53.148;8.204;2023-03-04T01:57:46;102264.31;;;8.17;100.00
48968;BME280;46511;53.148;8.204;2023-03-04T02:00:21;102255.81;;;8.03;100.00
48968;BME280;46511;53.148;8.204;2023-03-04T02:03:03;102256.59;;;8.08;100.00
48968;BME280;46511;53.148;8.204;2023-03-04T02:05:42;102260.16;;;8.07;100.00
48968;BME280;46511;53.148;8.204;2023-03-04T02:08:16;102255.19;;;7.92;100.00
48968;BME280;46511;53.148;8.204;2023-03-04T02:10:50;102248.03;;;7.97;100.00
48968;BME280;46511;53.148;8.204;2023-03-04T02:13:22;102250.31;;;8.12;100.00
48968;BME280;46511;53.148;8.204;2023-03-04T02:15:53;102250.00;;;8.26;100.00
48968;BME280;46511;53.148;8.204;2023-03-04T02:18:25;102250.47;;;8.06;100.00
48968;BME280;46511;53.148;8.204;2023-03-04T02:26:45;102234.59;;;8.05;100.00
48968;BME280;46511;53.148;8.204;2023-03-04T02:29:17;102230.47;;;7.93;100.00
48968;BME280;46511;53.148;8.204;2023-03-04T02:31:49;102238.09;;;7.68;100.00
48968;BME280;46511;53.148;8.204;2023-03-04T02:34:24;102236.69;;;7.90;100.00
48968;BME280;46511;53.148;8.204;2023-03-04T02:36:59;102233.06;;;7.94;100.00
48968;BME280;46511;53.148;8.204;2023-03-04T02:39:33;102228.66;;;7.95;100.00
48968;BME280;46511;53.148;8.204;2023-03-04T02:42:06;102226.53;;;8.11;100.00
48968;BME280;46511;53.148;8.204;2023-03-04T02:44:39;102225.78;;;8.06;100.00
48968;BME280;46511;53.148;8.204;2023-03-04T02:47:14;102229.69;;;7.89;100.00
48968;BME280;46511;53.148;8.204;2023-03-04T02:49:48;102224.81;;;8.08;100.00
48968;BME280;46511;53.148;8.204;2023-03-04T02:52:20;102214.06;;;8.14;100.00
48968;BME280;46511;53.148;8.204;2023-03-04T02:54:53;102217.59;;;8.16;100.00
48968;BME280;46511;53.148;8.204;2023-03-04T02:57:24;102211.88;;;8.35;100.00
48968;BME280;46511;53.148;8.204;2023-03-04T02:59:55;102213.97;;;7.82;100.00
48968;BME280;46511;53.148;8.204;2023-03-04T03:02:26;102212.75;;;7.95;100.00
48968;BME280;46511;53.148;8.204;2023-03-04T03:04:58;102212.84;;;7.92;100.00
48968;BME280;46511;53.148;8.204;2023-03-04T03:07:29;102211.19;;;7.88;100.00
48968;BME280;46511;53.148;8.204;2023-03-04T03:10:00;102204.78;;;7.98;100.00
48968;BME280;46511;53.148;8.204;2023-03-04T03:12:32;102205.47;;;7.66;100.00
48968;BME280;46511;53.148;8.204;2023-03-04T03:15:03;102205.25;;;7.78;100.00
48968;BME280;46511;53.148;8.204;2023-03-04T03:17:35;102208.75;;;7.79;100.00
48968;BME280;46511;53.148;8.204;2023-03-04T03:20:06;102199.78;;;7.84;100.00
48968;BME280;46511;53.148;8.204;2023-03-04T03:22:39;102194.78;;;7.32;100.00
48968;BME280;46511;53.148;8.204;2023-03-04T03:25:12;102197.56;;;7.66;100.00
48968;BME280;46511;53.148;8.204;2023-03-04T03:27:44;102188.06;;;7.96;100.00
48968;BME280;46511;53.148;8.204;2023-03-04T03:30:15;102188.34;;;7.84;100.00
48968;BME280;46511;53.148;8.204;2023-03-04T03:32:46;102184.25;;;7.70;100.00
48968;BME280;46511;53.148;8.204;2023-03-04T03:35:18;102183.41;;;7.68;100.00
48968;BME280;46511;53.148;8.204;2023-03-04T03:37:49;102175.94;;;7.86;100.00
48968;BME280;46511;53.148;8.204;2023-03-04T03:40:20;102180.78;;;8.04;100.00
48968;BME280;46511;53.148;8.204;2023-03-04T03:42:52;102177.59;;;7.91;100.00
48968;BME280;46511;53.148;8.204;2023-03-04T03:45:23;102179.00;;;7.67;100.00
48968;BME280;46511;53.148;8.204;2023-03-04T03:47:54;102177.53;;;7.93;100.00
48968;BME280;46511;53.148;8.204;2023-03-04T03:50:25;102178.03;;;7.71;100.00
48968;BME280;46511;53.148;8.204;2023-03-04T03:52:58;102176.75;;;7.89;100.00
48968;BME280;46511;53.148;8.204;2023-03-04T03:55:29;102172.47;;;7.84;100.00
48968;BME280;46511;53.148;8.204;2023-03-04T03:58:00;102176.47;;;7.63;100.00
48968;BME280;46511;53.148;8.204;2023-03-04T04:00:32;102166.91;;;7.96;100.00
48968;BME280;46511;53.148;8.204;2023-03-04T04:03:03;102171.75;;;7.77;100.00
48968;BME280;46511;53.148;8.204;2023-03-04T04:05:34;102170.19;;;7.68;100.00
48968;BME280;46511;53.148;8.204;2023-03-04T04:08:06;102168.03;;;7.84;100.00
48968;BME280;46511;53.148;8.204;2023-03-04T04:10:37;102168.69;;;7.94;100.00
48968;BME280;46511;53.148;8.204;2023-03-04T04:13:08;102165.22;;;7.92;100.00
48968;BME280;46511;53.148;8.204;2023-03-04T04:15:40;102165.22;;;7.92;100.00
48968;BME280;46511;53.148;8.204;2023-03-04T04:18:11;102154.94;;;7.80;100.00
48968;BME280;46511;53.148;8.204;2023-03-04T04:20:42;102161.88;;;7.84;100.00
48968;BME280;46511;53.148;8.204;2023-03-04T04:23:14;102163.66;;;7.83;100.00
48968;BME280;46511;53.148;8.204;2023-03-04T04:25:45;102156.09;;;7.66;100.00
48968;BME280;46511;53.148;8.204;2023-03-04T04:28:16;102146.38;;;7.68;100.00
48968;BME280;46511;53.148;8.204;2023-03-04T04:30:48;102151.56;;;7.73;100.00
48968;BME280;46511;53.148;8.204;2023-03-04T04:33:19;102153.81;;;7.51;100.00
48968;BME280;46511;53.148;8.204;2023-03-04T04:35:50;102154.53;;;7.59;100.00
48968;BME280;46511;53.148;8.204;2023-03-04T04:38:21;102157.38;;;7.50;100.00
48968;BME280;46511;53.148;8.204;2023-03-04T04:40:55;102159.44;;;7.36;100.00
48968;BME280;46511;53.148;8.204;2023-03-04T04:43:28;102150.03;;;7.63;100.00
48968;BME280;46511;53.148;8.204;2023-03-04T04:45:59;102147.72;;;7.48;100.00
48968;BME280;46511;53.148;8.204;2023-03-04T04:48:30;102142.88;;;7.66;100.00
48968;BME280;46511;53.148;8.204;2023-03-04T04:51:01;102149.53;;;7.84;100.00
48968;BME280;46511;53.148;8.204;2023-03-04T04:53:33;102149.41;;;7.52;100.00
48968;BME280;46511;53.148;8.204;2023-03-04T04:56:11;102157.84;;;7.67;100.00
48968;BME280;46511;53.148;8.204;2023-03-04T04:58:45;102152.72;;;7.61;100.00
48968;BME280;46511;53.148;8.204;2023-03-04T05:01:16;102150.94;;;7.62;100.00
48968;BME280;46511;53.148;8.204;2023-03-04T05:03:48;102156.25;;;7.19;100.00
48968;BME280;46511;53.148;8.204;2023-03-04T05:06:22;102154.53;;;7.59;100.00
48968;BME280;46511;53.148;8.204;2023-03-04T05:08:54;102158.69;;;7.69;100.00
48968;BME280;46511;53.148;8.204;2023-03-04T05:11:25;102160.56;;;7.64;100.00
48968;BME280;46511;53.148;8.204;2023-03-04T05:13:57;102166.34;;;7.43;100.00
48968;BME280;46511;53.148;8.204;2023-03-04T05:16:28;102172.34;;;7.51;100.00
48968;BME280;46511;53.148;8.204;2023-03-04T05:19:00;102164.72;;;7.36;100.00
48968;BME280;46511;53.148;8.204;2023-03-04T05:21:31;102170.88;;;6.92;100.00
48968;BME280;46511;53.148;8.204;2023-03-04T05:24:03;102173.47;;;7.38;100.00
48968;BME280;46511;53.148;8.204;2023-03-04T05:26:34;102178.16;;;7.25;100.00
48968;BME280;46511;53.148;8.204;2023-03-04T05:29:05;102181.31;;;6.99;100.00
48968;BME280;46511;53.148;8.204;2023-03-04T05:31:37;102173.06;;;7.16;100.00
48968;BME280;46511;53.148;8.204;2023-03-04T05:34:08;102181.44;;;7.36;100.00
48968;BME280;46511;53.148;8.204;2023-03-04T05:36:39;102175.56;;;7.24;100.00
48968;BME280;46511;53.148;8.204;2023-03-04T05:39:10;102169.28;;;7.28;100.00
48968;BME280;46511;53.148;8.204;2023-03-04T05:41:42;102168.97;;;7.01;100.00
48968;BME280;46511;53.148;8.204;2023-03-04T05:44:13;102166.84;;;7.19;100.00
48968;BME280;46511;53.148;8.204;2023-03-04T05:46:44;102161.59;;;7.17;100.00
48968;BME280;46511;53.148;8.204;2023-03-04T05:49:16;102167.88;;;7.53;100.00
48968;BME280;46511;53.148;8.204;2023-03-04T05:51:47;102168.56;;;7.61;100.00
48968;BME280;46511;53.148;8.204;2023-03-04T05:54:18;102164.41;;;7.51;100.00
48968;BME280;46511;53.148;8.204;2023-03-04T05:56:49;102170.94;;;7.33;100.00
48968;BME280;46511;53.148;8.204;2023-03-04T05:59:21;102159.69;;;7.24;100.00
48968;BME280;46511;53.148;8.204;2023-03-04T06:01:53;102164.03;;;7.26;100.00
48968;BME280;46511;53.148;8.204;2023-03-04T06:04:24;102166.13;;;7.12;100.00
48968;BME280;46511;53.148;8.204;2023-03-04T06:06:55;102168.22;;;7.36;100.00
48968;BME280;46511;53.148;8.204;2023-03-04T06:09:27;102165.06;;;7.19;100.00
48968;BME280;46511;53.148;8.204;2023-03-04T06:11:58;102169.47;;;7.20;100.00
48968;BME280;46511;53.148;8.204;2023-03-04T06:14:29;102167.63;;;7.24;100.00
48968;BME280;46511;53.148;8.204;2023-03-04T06:17:00;102166.53;;;7.34;100.00
48968;BME280;46511;53.148;8.204;2023-03-04T06:19:32;102161.44;;;7.25;100.00
48968;BME280;46511;53.148;8.204;2023-03-04T06:22:04;102159.13;;;7.08;100.00
48968;BME280;46511;53.148;8.204;2023-03-04T06:24:35;102158.22;;;7.09;100.00
48968;BME280;46511;53.148;8.204;2023-03-04T06:27:08;102166.53;;;7.34;100.00
48968;BME280;46511;53.148;8.204;2023-03-04T06:29:39;102158.47;;;7.38;100.00
48968;BME280;46511;53.148;8.204;2023-03-04T06:32:10;102164.88;;;7.30;100.00
48968;BME280;46511;53.148;8.204;2023-03-04T06:34:42;102160.19;;;7.42;100.00
48968;BME280;46511;53.148;8.204;2023-03-04T06:37:13;102166.34;;;7.43;100.00
48968;BME280;46511;53.148;8.204;2023-03-04T06:39:44;102166.50;;;7.35;100.00
48968;BME280;46511;53.148;8.204;2023-03-04T06:42:16;102166.84;;;7.19;100.00
48968;BME280;46511;53.148;8.204;2023-03-04T06:44:47;102170.63;;;7.49;100.00
48968;BME280;46511;53.148;8.204;2023-03-04T06:47:19;102177.25;;;7.66;100.00
48968;BME280;46511;53.148;8.204;2023-03-04T06:49:50;102178.34;;;7.58;100.00
48968;BME280;46511;53.148;8.204;2023-03-04T06:52:22;102192.31;;;7.64;100.00
48968;BME280;46511;53.148;8.204;2023-03-04T06:54:54;102191.47;;;7.62;100.00
48968;BME280;46511;53.148;8.204;2023-03-04T06:57:25;102194.78;;;7.72;100.00
48968;BME280;46511;53.148;8.204;2023-03-04T06:59:56;102198.50;;;7.63;100.00
48968;BME280;46511;53.148;8.204;2023-03-04T07:02:28;102193.13;;;8.05;100.00
48968;BME280;46511;53.148;8.204;2023-03-04T07:04:59;102187.47;;;8.20;100.00
48968;BME280;46511;53.148;8.204;2023-03-04T07:07:30;102191.19;;;8.49;100.00
48968;BME280;46511;53.148;8.204;2023-03-04T07:10:02;102187.41;;;8.59;100.00
48968;BME280;46511;53.148;8.204;2023-03-04T07:12:33;102188.69;;;8.43;100.00
48968;BME280;46511;53.148;8.204;2023-03-04T07:15:05;102182.28;;;8.53;100.00
48968;BME280;46511;53.148;8.204;2023-03-04T07:17:36;102176.00;;;8.57;100.00
48968;BME280;46511;53.148;8.204;2023-03-04T07:20:08;102179.78;;;8.47;100.00
48968;BME280;46511;53.148;8.204;2023-03-04T07:22:40;102179.47;;;8.59;100.00
48968;BME280;46511;53.148;8.204;2023-03-04T07:25:11;102175.75;;;8.66;100.00
48968;BME280;46511;53.148;8.204;2023-03-04T07:27:42;102179.25;;;8.67;100.00
48968;BME280;46511;53.148;8.204;2023-03-04T07:30:14;102185.84;;;8.84;100.00
48968;BME280;46511;53.148;8.204;2023-03-04T07:32:45;102185.88;;;8.50;100.00
48968;BME280;46511;53.148;8.204;2023-03-04T07:35:16;102187.53;;;8.54;100.00
48968;BME280;46511;53.148;8.204;2023-03-04T07:37:48;102193.06;;;8.45;100.00
48968;BME280;46511;53.148;8.204;2023-03-04T07:40:19;102193.06;;;8.45;100.00
48968;BME280;46511;53.148;8.204;2023-03-04T07:42:52;102191.19;;;8.49;100.00
48968;BME280;46511;53.148;8.204;2023-03-04T07:45:19;102195.50;;;8.17;100.00
48968;BME280;46511;53.148;8.204;2023-03-04T07:47:51;102196.34;;;8.55;100.00
48968;BME280;46511;53.148;8.204;2023-03-04T07:50:23;102200.63;;;8.23;100.00
48968;BME280;46511;53.148;8.204;2023-03-04T07:52:54;102201.13;;;8.41;100.00
48968;BME280;46511;53.148;8.204;2023-03-04T07:55:26;102201.13;;;8.41;100.00
48968;BME280;46511;53.148;8.204;2023-03-04T07:57:52;102205.22;;;8.54;100.00
48968;BME280;46511;53.148;8.204;2023-03-04T08:00:24;102206.59;;;8.35;100.00
48968;BME280;46511;53.148;8.204;2023-03-04T08:02:55;102195.69;;;8.47;100.00
48968;BME280;46511;53.148;8.204;2023-03-04T08:05:27;102203.41;;;8.88;100.00
48968;BME280;46511;53.148;8.204;2023-03-04T08:07:58;102191.81;;;8.93;100.00
48968;BME280;46511;53.148;8.204;2023-03-04T08:10:29;102201.88;;;8.09;100.00
48968;BME280;46511;53.148;8.204;2023-03-04T08:13:01;102200.59;;;8.61;100.00
48968;BME280;46511;53.148;8.204;2023-03-04T08:15:32;102193.63;;;8.91;100.00
48968;BME280;46511;53.148;8.204;2023-03-04T08:18:05;102195.09;;;8.34;100.00
48968;BME280;46511;53.148;8.204;2023-03-04T08:20:36;102199.03;;;8.53;100.00
48968;BME280;46511;53.148;8.204;2023-03-04T08:23:08;102198.91;;;8.91;100.00
48968;BME280;46511;53.148;8.204;2023-03-04T08:25:41;102198.53;;;8.73;100.00
48968;BME280;46511;53.148;8.204;2023-03-04T08:28:13;102197.75;;;8.68;100.00
48968;BME280;46511;53.148;8.204;2023-03-04T08:30:44;102201.16;;;9.06;100.00
48968;BME280;46511;53.148;8.204;2023-03-04T08:33:21;102201.56;;;8.91;100.00
48968;BME280;46511;53.148;8.204;2023-03-04T08:35:53;102202.22;;;9.31;100.00
48968;BME280;46511;53.148;8.204;2023-03-04T08:38:25;102197.78;;;9.01;100.00
48968;BME280;46511;53.148;8.204;2023-03-04T08:40:56;102207.59;;;9.28;100.00
48968;BME280;46511;53.148;8.204;2023-03-04T08:43:28;102202.19;;;9.62;100.00
48968;BME280;46511;53.148;8.204;2023-03-04T08:46:00;102198.44;;;9.40;100.00
48968;BME280;46511;53.148;8.204;2023-03-04T08:48:31;102210.56;;;9.49;100.00
48968;BME280;46511;53.148;8.204;2023-03-04T08:51:10;102203.03;;;9.63;100.00
48968;BME280;46511;53.148;8.204;2023-03-04T08:53:44;102208.91;;;10.02;100.00
48968;BME280;46511;53.148;8.204;2023-03-04T08:56:16;102205.09;;;10.11;100.00
48968;BME280;46511;53.148;8.204;2023-03-04T08:58:47;102202.78;;;10.28;100.00
48968;BME280;46511;53.148;8.204;2023-03-04T09:01:18;102208.13;;;10.54;100.00
48968;BME280;46511;53.148;8.204;2023-03-04T09:03:49;102208.38;;;10.47;100.00
48968;BME280;46511;53.148;8.204;2023-03-04T09:06:21;102208.84;;;9.76;100.00
48968;BME280;46511;53.148;8.204;2023-03-04T09:08:52;102214.66;;;10.16;100.00
48968;BME280;46511;53.148;8.204;2023-03-04T09:11:23;102214.47;;;9.65;100.00
48968;BME280;46511;53.148;8.204;2023-03-04T09:13:55;102213.06;;;9.53;100.00
48968;BME280;46511;53.148;8.204;2023-03-04T09:16:26;102211.53;;;9.74;100.00
48968;BME280;46511;53.148;8.204;2023-03-04T09:18:58;102211.75;;;10.77;100.00
48968;BME280;46511;53.148;8.204;2023-03-04T09:21:30;102212.63;;;9.96;100.00
48968;BME280;46511;53.148;8.204;2023-03-04T09:24:01;102213.81;;;9.58;100.00
48968;BME280;46511;53.148;8.204;2023-03-04T09:26:33;102212.63;;;9.68;100.00
48968;BME280;46511;53.148;8.204;2023-03-04T09:29:04;102222.00;;;9.20;100.00
48968;BME280;46511;53.148;8.204;2023-03-04T09:31:36;102230.13;;;8.79;100.00
48968;BME280;46511;53.148;8.204;2023-03-04T09:34:07;102227.31;;;9.18;100.00
48968;BME280;46511;53.148;8.204;2023-03-04T09:36:40;102229.72;;;9.58;100.00
48968;BME280;46511;53.148;8.204;2023-03-04T09:39:11;102212.03;;;12.75;100.00
48968;BME280;46511;53.148;8.204;2023-03-04T09:41:44;102205.81;;;14.99;92.55
48968;BME280;46511;53.148;8.204;2023-03-04T09:44:21;102209.19;;;16.62;79.26
48968;BME280;46511;53.148;8.204;2023-03-04T09:46:56;102207.09;;;16.67;65.30
48968;BME280;46511;53.148;8.204;2023-03-04T09:49:30;102207.59;;;15.49;71.30
48968;BME280;46511;53.148;8.204;2023-03-04T09:52:03;102197.13;;;12.71;86.30
48968;BME280;46511;53.148;8.204;2023-03-04T10:00:15;102220.38;;;9.74;100.00
48968;BME280;46511;53.148;8.204;2023-03-04T10:02:54;102230.63;;;9.87;100.00
48968;BME280;46511;53.148;8.204;2023-03-04T10:05:30;102228.63;;;8.69;100.00
48968;BME280;46511;53.148;8.204;2023-03-04T10:08:09;102231.66;;;8.55;100.00
48968;BME280;46511;53.148;8.204;2023-03-04T10:11:02;102231.28;;;8.69;100.00
48968;BME280;46511;53.148;8.204;2023-03-04T10:13:58;102224.19;;;9.04;100.00
48968;BME280;46511;53.148;8.204;2023-03-04T10:16:36;102231.75;;;9.18;100.00
48968;BME280;46511;53.148;8.204;2023-03-04T10:21:44;102233.16;;;9.62;100.00
48968;BME280;46511;53.148;8.204;2023-03-04T10:24:19;102234.22;;;9.84;100.00
48968;BME280;46511;53.148;8.204;2023-03-04T10:26:57;102236.50;;;11.52;100.00
48968;BME280;46511;53.148;8.204;2023-03-04T10:29:32;102222.50;;;11.24;100.00
48968;BME280;46511;53.148;8.204;2023-03-04T10:32:04;102223.69;;;12.30;100.00
48968;BME280;46511;53.148;8.204;2023-03-04T10:34:35;102231.06;;;12.46;100.00
48968;BME280;46511;53.148;8.204;2023-03-04T10:37:06;102230.22;;;12.66;94.88
48968;BME280;46511;53.148;8.204;2023-03-04T10:39:43;102224.00;;;13.28;93.89
48968;BME280;46511;53.148;8.204;2023-03-04T10:44:51;102231.84;;;12.70;96.97
48968;BME280;46511;53.148;8.204;2023-03-04T10:47:27;102225.91;;;12.63;95.04
48968;BME280;46511;53.148;8.204;2023-03-04T10:50:00;102220.44;;;13.07;91.15
48968;BME280;46511;53.148;8.204;2023-03-04T10:52:35;102226.44;;;13.12;89.60
48968;BME280;46511;53.148;8.204;2023-03-04T10:55:14;102215.47;;;12.37;89.54
48968;BME280;46511;53.148;8.204;2023-03-04T10:57:48;102210.28;;;12.54;94.23
48968;BME280;46511;53.148;8.204;2023-03-04T11:00:24;102217.44;;;10.40;100.00
48968;BME280;46511;53.148;8.204;2023-03-04T11:03:23;102233.38;;;10.12;100.00
48968;BME280;46511;53.148;8.204;2023-03-04T11:06:18;102236.13;;;9.20;100.00
48968;BME280;46511;53.148;8.204;2023-03-04T11:08:53;102231.19;;;9.06;100.00
48968;BME280;46511;53.148;8.204;2023-03-04T11:11:37;102206.88;;;8.91;100.00
48968;BME280;46511;53.148;8.204;2023-03-04T11:14:30;102209.41;;;9.85;100.00
48968;BME280;46511;53.148;8.204;2023-03-04T11:17:16;102208.97;;;11.53;100.00
48968;BME280;46511;53.148;8.204;2023-03-04T11:20:10;102209.53;;;14.26;100.00
48968;BME280;46511;53.148;8.204;2023-03-04T11:23:05;102192.47;;;16.43;75.55
48968;BME280;46511;53.148;8.204;2023-03-04T11:25:43;102194.88;;;15.37;81.91
48968;BME280;46511;53.148;8.204;2023-03-04T11:28:22;102199.50;;;15.18;77.38
48968;BME280;46511;53.148;8.204;2023-03-04T11:31:02;102189.59;;;13.59;88.95
48968;BME280;46511;53.148;8.204;2023-03-04T11:33:50;102189.03;;;12.93;93.90
48968;BME280;46511;53.148;8.204;2023-03-04T11:36:39;102183.59;;;13.35;94.52
48968;BME280;46511;53.148;8.204;2023-03-04T11:39:18;102192.25;;;14.33;87.88
48968;BME280;46511;53.148;8.204;2023-03-04T11:42:02;102180.16;;;14.95;78.00
48968;BME280;46511;53.148;8.204;2023-03-04T11:44:41;102179.06;;;14.11;79.60
48968;BME280;46511;53.148;8.204;2023-03-04T11:47:18;102171.06;;;14.47;79.86
48968;BME280;46511;53.148;8.204;2023-03-04T11:50:22;102168.00;;;14.55;75.81
48968;BME280;46511;53.148;8.204;2023-03-04T11:53:06;102173.66;;;13.77;78.76
48968;BME280;46511;53.148;8.204;2023-03-04T11:56:10;102173.50;;;12.82;85.09
48968;BME280;46511;53.148;8.204;2023-03-04T12:01:58;102158.88;;;13.11;89.01
48968;BME280;46511;53.148;8.204;2023-03-04T12:08:14;102150.97;;;14.91;70.69
48968;BME280;46511;53.148;8.204;2023-03-04T12:19:05;102162.44;;;10.93;100.00
48968;BME280;46511;53.148;8.204;2023-03-04T12:22:15;102167.19;;;9.20;100.00
48968;BME280;46511;53.148;8.204;2023-03-04T12:25:12;102168.94;;;9.21;100.00
48968;BME280;46511;53.148;8.204;2023-03-04T12:28:16;102166.28;;;9.51;100.00
48968;BME280;46511;53.148;8.204;2023-03-04T12:33:41;102156.31;;;10.13;100.00
48968;BME280;46511;53.148;8.204;2023-03-04T12:54:05;102126.53;;;12.80;76.37
48968;BME280;46511;53.148;8.204;2023-03-04T12:56:56;102124.81;;;12.98;74.92
48968;BME280;46511;53.148;8.204;2023-03-04T12:59:35;102127.69;;;11.90;79.04
48968;BME280;46511;53.148;8.204;2023-03-04T13:02:19;102116.13;;;10.99;84.49
48968;BME280;46511;53.148;8.204;2023-03-04T13:16:51;102132.41;;;9.00;100.00
48968;BME280;46511;53.148;8.204;2023-03-04T13:22:25;102134.69;;;8.82;100.00
48968;BME280;46511;53.148;8.204;2023-03-04T13:24:58;102131.25;;;9.39;100.00
48968;BME280;46511;53.148;8.204;2023-03-04T13:43:58;102126.13;;;9.33;86.75
48968;BME280;46511;53.148;8.204;2023-03-04T13:46:38;102120.59;;;9.41;88.11
48968;BME280;46511;53.148;8.204;2023-03-04T13:49:16;102120.75;;;9.64;87.19
48968;BME280;46511;53.148;8.204;2023-03-04T13:51:52;102119.81;;;9.67;87.68
48968;BME280;46511;53.148;8.204;2023-03-04T13:57:20;102119.84;;;9.36;91.06
48968;BME280;46511;53.148;8.204;2023-03-04T14:02:27;102109.66;;;9.52;91.11
48968;BME280;46511;53.148;8.204;2023-03-04T14:05:04;102117.63;;;9.22;92.56
48968;BME280;46511;53.148;8.204;2023-03-04T14:07:36;102111.81;;;9.39;92.82
48968;BME280;46511;53.148;8.204;2023-03-04T14:12:43;102110.50;;;9.24;92.07
48968;BME280;46511;53.148;8.204;2023-03-04T14:15:24;102118.00;;;9.10;96.37
48968;BME280;46511;53.148;8.204;2023-03-04T14:17:57;102111.41;;;8.94;98.18
48968;BME280;46511;53.148;8.204;2023-03-04T14:23:40;102132.03;;;8.82;100.00
48968;BME280;46511;53.148;8.204;2023-03-04T14:26:08;102136.25;;;7.87;100.00
48968;BME280;46511;53.148;8.204;2023-03-04T14:28:46;102140.94;;;7.74;100.00
48968;BME280;46511;53.148;8.204;2023-03-04T14:31:20;102145.56;;;8.02;100.00
48968;BME280;46511;53.148;8.204;2023-03-04T14:33:53;102139.38;;;8.03;100.00
48968;BME280;46511;53.148;8.204;2023-03-04T14:36:30;102139.38;;;8.03;100.00
48968;BME280;46511;53.148;8.204;2023-03-04T14:39:04;102126.72;;;8.14;100.00
48968;BME280;46511;53.148;8.204;2023-03-04T14:41:38;102124.47;;;8.36;100.00
48968;BME280;46511;53.148;8.204;2023-03-04T14:44:13;102121.69;;;8.73;100.00
48968;BME280;46511;53.148;8.204;2023-03-04T14:46:56;102116.81;;;9.20;100.00
48968;BME280;46511;53.148;8.204;2023-03-04T14:49:36;102114.16;;;9.20;100.00
48968;BME280;46511;53.148;8.204;2023-03-04T14:52:25;102109.25;;;9.06;100.00
48968;BME280;46511;53.148;8.204;2023-03-04T14:57:46;102104.81;;;9.07;100.00
48968;BME280;46511;53.148;8.204;2023-03-04T15:02:51;102098.00;;;8.33;100.00
48968;BME280;46511;53.148;8.204;2023-03-04T15:05:29;102101.44;;;8.71;100.00